Time;durP1;ratioP1;P1;durP2;ratioP2;P2;SDS_P1;SDS_P2;PMS_P1;PMS_P2;Temp;Humidity;BMP_temperature;BMP_pressure;BME280_temperature;BME280_humidity;BME280_pressure;Samples;Min_cycle;Max_cycle;Signal;HPM_P1;HPM_P2
2023/04/03 00:00:13;;;;;;;1.40;0.80;;;4.50;99.90;;;;;;4995750;28;20023;-62
2023/04/03 00:02:40;;;;;;;6.38;1.02;;;4.50;99.90;;;;;;5009145;28;20029;-62
2023/04/03 00:05:06;;;;;;;0.90;0.43;;;4.50;99.90;;;;;;4995428;28;20125;-63
2023/04/03 00:07:32;;;;;;;1.83;1.15;;;4.40;99.90;;;;;;4995226;28;20041;-63
2023/04/03 00:09:57;;;;;;;1.03;0.60;;;4.40;99.90;;;;;;4995787;28;20034;-62
2023/04/03 00:12:23;;;;;;;2.40;1.00;;;4.40;99.90;;;;;;5001265;28;20130;-63
2023/04/03 00:14:49;;;;;;;0.53;0.50;;;4.40;99.90;;;;;;4995449;28;20033;-69
2023/04/03 00:17:15;;;;;;;2.13;0.90;;;4.40;99.90;;;;;;4995415;28;20117;-69
2023/04/03 00:19:40;;;;;;;3.43;1.03;;;4.40;99.90;;;;;;4995180;28;20022;-71
2023/04/03 00:22:06;;;;;;;1.13;0.70;;;4.30;99.90;;;;;;4994121;28;20050;-63
2023/04/03 00:24:32;;;;;;;1.80;0.93;;;4.30;99.90;;;;;;4995384;28;20373;-63
2023/04/03 00:26:57;;;;;;;2.87;0.90;;;4.30;99.90;;;;;;4995928;28;20109;-66
2023/04/03 00:29:23;;;;;;;0.70;0.70;;;4.20;99.90;;;;;;4995319;28;20058;-69
2023/04/03 00:31:49;;;;;;;2.30;0.80;;;4.20;99.90;;;;;;4995304;28;20085;-63
2023/04/03 00:34:15;;;;;;;4.57;1.53;;;4.20;99.90;;;;;;5009055;28;20090;-63
2023/04/03 00:36:41;;;;;;;3.70;1.50;;;4.20;99.90;;;;;;4995341;28;20019;-62
2023/04/03 00:39:07;;;;;;;1.40;0.70;;;4.20;99.90;;;;;;4999236;28;20101;-68
2023/04/03 00:41:32;;;;;;;3.90;1.07;;;4.10;99.90;;;;;;4995176;28;20110;-65
2023/04/03 00:43:58;;;;;;;3.50;1.20;;;4.10;99.90;;;;;;4995106;28;20026;-74
2023/04/03 00:46:24;;;;;;;3.77;1.17;;;4.10;99.90;;;;;;4995225;28;20019;-67
2023/04/03 00:48:50;;;;;;;2.13;0.67;;;4.10;99.90;;;;;;4995788;28;20030;-63
2023/04/03 00:51:26;;;;;;;1.33;0.82;;;4.10;99.90;;;;;;4999070;28;20045;-64
2023/04/03 00:54:05;;;;;;;2.00;0.93;;;4.00;99.90;;;;;;5012496;28;20085;-72
2023/04/03 00:56:31;;;;;;;5.00;1.23;;;4.00;99.90;;;;;;4999259;28;20026;-63
2023/04/03 00:59:06;;;;;;;0.85;0.70;;;4.00;99.90;;;;;;4998507;28;20023;-63
2023/04/03 01:01:32;;;;;;;3.33;1.25;;;3.90;99.90;;;;;;4998962;28;20030;-61
2023/04/03 01:04:00;;;;;;;2.43;1.23;;;3.90;99.90;;;;;;4998620;28;20037;-62
2023/04/03 01:06:31;;;;;;;3.50;0.75;;;3.90;99.90;;;;;;4998903;28;20425;-62
2023/04/03 01:08:58;;;;;;;3.08;1.02;;;3.90;99.90;;;;;;4994753;28;20329;-62
2023/04/03 01:11:24;;;;;;;5.28;1.45;;;3.90;99.90;;;;;;4998539;28;20443;-68
2023/04/03 01:13:50;;;;;;;2.35;1.10;;;3.90;99.90;;;;;;4998440;28;20045;-62
2023/04/03 01:16:16;;;;;;;3.47;0.80;;;3.80;99.90;;;;;;4998726;28;20035;-62
2023/04/03 01:18:43;;;;;;;4.60;1.17;;;3.80;99.90;;;;;;4998967;28;20137;-62
2023/04/03 01:21:33;;;;;;;3.72;1.08;;;3.70;99.90;;;;;;4998242;28;20014;-62
2023/04/03 01:24:07;;;;;;;3.47;1.13;;;3.70;99.90;;;;;;4992498;28;20039;-62
2023/04/03 01:26:35;;;;;;;1.73;1.02;;;3.70;99.90;;;;;;4998822;28;20414;-61
2023/04/03 01:29:01;;;;;;;1.65;1.13;;;3.70;99.90;;;;;;4998229;28;20066;-62
2023/04/03 01:31:30;;;;;;;2.38;0.80;;;3.70;99.90;;;;;;4998622;28;20018;-62
2023/04/03 01:33:56;;;;;;;3.05;1.25;;;3.60;99.90;;;;;;4998566;28;20034;-62
2023/04/03 01:36:29;;;;;;;3.20;0.70;;;3.60;99.90;;;;;;4997982;28;20362;-62
2023/04/03 01:38:56;;;;;;;2.47;1.13;;;3.60;99.90;;;;;;4988404;28;20072;-62
2023/04/03 01:41:22;;;;;;;2.95;0.88;;;3.60;99.90;;;;;;4999609;28;20101;-62
2023/04/03 01:43:49;;;;;;;1.35;0.82;;;3.50;99.90;;;;;;4998012;28;20097;-62
2023/04/03 01:46:16;;;;;;;5.03;1.15;;;3.50;99.90;;;;;;4998187;28;20034;-62
2023/04/03 01:48:42;;;;;;;3.03;1.20;;;3.50;99.90;;;;;;4998231;28;20037;-74
2023/04/03 01:51:08;;;;;;;1.50;1.00;;;3.50;99.90;;;;;;4998060;28;20038;-62
2023/04/03 01:53:33;;;;;;;2.00;1.20;;;3.50;99.90;;;;;;4997485;28;20023;-62
2023/04/03 01:55:59;;;;;;;1.47;1.03;;;3.40;99.90;;;;;;4998668;28;20109;-62
2023/04/03 01:58:25;;;;;;;3.03;1.00;;;3.40;99.90;;;;;;4997541;28;20049;-62
2023/04/03 02:00:51;;;;;;;1.73;1.23;;;3.40;99.90;;;;;;4997771;28;20026;-62
2023/04/03 02:03:18;;;;;;;2.03;1.00;;;3.30;99.90;;;;;;4997442;28;20057;-62
2023/04/03 02:05:44;;;;;;;6.72;1.45;;;3.30;99.90;;;;;;4998218;28;20358;-62
2023/04/03 02:08:10;;;;;;;3.57;1.13;;;3.30;99.90;;;;;;4997626;28;20018;-62
2023/04/03 02:10:36;;;;;;;2.25;1.30;;;3.30;99.90;;;;;;5002754;28;20041;-62
2023/04/03 02:13:02;;;;;;;1.10;1.00;;;3.30;99.90;;;;;;5009023;28;20045;-62
2023/04/03 02:15:27;;;;;;;3.07;1.27;;;3.20;99.90;;;;;;5013170;28;20050;-63
2023/04/03 02:17:53;;;;;;;2.63;1.00;;;3.20;99.90;;;;;;4997584;28;20084;-62
2023/04/03 02:20:19;;;;;;;2.13;1.00;;;3.20;99.90;;;;;;4997536;28;20536;-62
2023/04/03 02:22:45;;;;;;;3.35;1.13;;;3.20;99.90;;;;;;4997508;28;20266;-62
2023/04/03 02:25:12;;;;;;;1.43;0.77;;;3.20;99.90;;;;;;5000369;28;20072;-62
2023/04/03 02:27:38;;;;;;;6.95;1.60;;;3.20;99.90;;;;;;4997324;28;20429;-62
2023/04/03 02:30:05;;;;;;;3.93;1.10;;;3.10;99.90;;;;;;4997457;28;20109;-62
2023/04/03 02:32:30;;;;;;;;;;;3.10;99.90;;;;;;4997912;28;20030;-62
2023/04/03 02:34:56;;;;;;;2.08;1.40;;;3.10;99.90;;;;;;5006807;28;20193;-62
2023/04/03 02:37:22;;;;;;;4.73;1.40;;;3.10;99.90;;;;;;5010160;28;20368;-62
2023/04/03 02:39:48;;;;;;;2.67;1.20;;;3.10;99.90;;;;;;5000250;28;20046;-62
2023/04/03 02:42:14;;;;;;;3.13;1.60;;;3.10;99.90;;;;;;5002278;28;20084;-62
2023/04/03 02:44:40;;;;;;;2.78;1.20;;;3.00;99.90;;;;;;4997057;28;20018;-62
2023/04/03 02:47:06;;;;;;;1.37;1.03;;;3.00;99.90;;;;;;4997320;28;20041;-62
2023/04/03 02:49:31;;;;;;;2.73;1.30;;;3.00;99.90;;;;;;4996783;28;20023;-74
2023/04/03 02:51:57;;;;;;;5.97;1.50;;;2.90;99.90;;;;;;4997055;28;20306;-62
2023/04/03 02:54:27;;;;;;;4.50;1.33;;;2.90;99.90;;;;;;4999190;28;20062;-62
2023/04/03 02:56:53;;;;;;;2.17;1.15;;;2.90;99.90;;;;;;4996831;28;20037;-62
2023/04/03 02:59:19;;;;;;;5.27;1.50;;;2.90;99.90;;;;;;4996727;28;20406;-62
2023/04/03 03:01:45;;;;;;;1.58;0.95;;;2.90;99.90;;;;;;5004139;28;20031;-62
2023/04/03 03:04:11;;;;;;;1.30;0.93;;;2.90;99.90;;;;;;4997025;28;20110;-62
2023/04/03 03:06:37;;;;;;;3.77;1.33;;;2.80;99.90;;;;;;4996486;28;20058;-63
2023/04/03 03:09:03;;;;;;;2.43;1.30;;;2.80;99.90;;;;;;4996716;28;20030;-62
2023/04/03 03:11:30;;;;;;;4.75;1.63;;;2.80;99.90;;;;;;4996138;28;20038;-62
2023/04/03 03:13:56;;;;;;;4.18;1.50;;;2.80;99.90;;;;;;4995942;28;20362;-62
2023/04/03 03:16:21;;;;;;;6.30;1.47;;;2.80;99.90;;;;;;4996586;28;20030;-62
2023/04/03 03:18:47;;;;;;;3.17;1.30;;;2.80;99.90;;;;;;4996217;28;20073;-62
2023/04/03 03:21:13;;;;;;;4.63;1.30;;;2.70;99.90;;;;;;4996468;28;20042;-62
2023/04/03 03:23:40;;;;;;;2.60;1.15;;;2.80;99.90;;;;;;4995999;28;20034;-62
2023/04/03 03:26:08;;;;;;;4.60;1.52;;;2.70;99.90;;;;;;4996391;28;20504;-62
2023/04/03 03:28:36;;;;;;;8.48;1.90;;;2.70;99.90;;;;;;5003952;28;20034;-62
2023/04/03 03:31:02;;;;;;;3.10;1.58;;;2.70;99.90;;;;;;5010496;28;20303;-62
2023/04/03 03:33:28;;;;;;;4.90;1.40;;;2.70;99.90;;;;;;4996156;28;20042;-62
2023/04/03 03:35:54;;;;;;;3.27;1.60;;;2.60;99.90;;;;;;4995694;28;20033;-62
2023/04/03 03:38:20;;;;;;;5.55;1.48;;;2.60;99.90;;;;;;4988812;28;20022;-61
2023/04/03 03:40:50;;;;;;;6.97;1.27;;;2.60;99.90;;;;;;4999272;28;20034;-62
2023/04/03 03:43:17;;;;;;;5.15;1.33;;;2.60;99.90;;;;;;5004576;28;20420;-62
2023/04/03 03:45:43;;;;;;;7.03;1.55;;;2.60;99.90;;;;;;5000808;28;20034;-62
2023/04/03 03:48:09;;;;;;;3.23;1.30;;;2.60;99.90;;;;;;4995566;28;20321;-62
2023/04/03 03:50:35;;;;;;;1.52;1.25;;;2.60;99.90;;;;;;4995970;28;20026;-62
2023/04/03 03:53:01;;;;;;;4.77;1.90;;;2.60;99.90;;;;;;4995517;28;20418;-62
2023/04/03 03:55:27;;;;;;;4.00;1.48;;;2.50;99.90;;;;;;4996012;28;20027;-62
2023/04/03 03:57:52;;;;;;;3.23;1.30;;;2.50;99.90;;;;;;4996838;28;20033;-62
2023/04/03 04:00:19;;;;;;;4.17;1.50;;;2.50;99.90;;;;;;4995430;28;20105;-62
2023/04/03 04:02:45;;;;;;;4.65;1.30;;;2.50;99.90;;;;;;4995731;28;20025;-62
2023/04/03 04:05:11;;;;;;;6.32;1.40;;;2.50;99.90;;;;;;4995583;28;20030;-62
2023/04/03 04:07:36;;;;;;;7.50;1.63;;;2.50;99.90;;;;;;4995707;28;20033;-63
2023/04/03 04:10:03;;;;;;;4.37;2.07;;;2.40;99.90;;;;;;4997762;28;20117;-62
2023/04/03 04:12:29;;;;;;;1.83;1.10;;;2.40;99.90;;;;;;5007821;28;20125;-62
2023/04/03 04:14:55;;;;;;;5.03;1.15;;;2.40;99.90;;;;;;4995626;28;20037;-62
2023/04/03 04:17:21;;;;;;;2.63;1.47;;;2.40;99.90;;;;;;5014546;28;20027;-62
2023/04/03 04:19:47;;;;;;;2.35;1.25;;;2.40;99.90;;;;;;5003926;28;20317;-62
2023/04/03 04:22:12;;;;;;;7.20;1.57;;;2.40;99.90;;;;;;5008987;28;20030;-62
2023/04/03 04:24:38;;;;;;;4.73;1.87;;;2.30;99.90;;;;;;5004056;28;20336;-73
2023/04/03 04:27:04;;;;;;;10.27;1.60;;;2.30;99.90;;;;;;4999530;28;20041;-62
2023/04/03 04:29:35;;;;;;;9.27;1.73;;;2.30;99.90;;;;;;4995703;28;20072;-62
2023/04/03 04:32:00;;;;;;;4.40;1.58;;;2.30;99.90;;;;;;4994806;28;20481;-62
2023/04/03 04:34:26;;;;;;;6.43;1.43;;;2.30;99.90;;;;;;4978045;28;20030;-62
2023/04/03 04:36:52;;;;;;;9.40;1.70;;;2.20;99.90;;;;;;4989862;28;20030;-62
2023/04/03 04:39:18;;;;;;;5.07;1.67;;;2.20;99.90;;;;;;4997316;28;20054;-62
2023/04/03 04:41:43;;;;;;;3.93;1.30;;;2.20;99.90;;;;;;5003770;28;20034;-71
2023/04/03 04:44:09;;;;;;;3.33;1.00;;;2.20;99.90;;;;;;4995213;28;20042;-62
2023/04/03 04:46:35;;;;;;;2.35;1.38;;;2.20;99.90;;;;;;4995120;28;20561;-62
2023/04/03 04:49:01;;;;;;;5.77;1.90;;;2.20;99.90;;;;;;4995274;28;20113;-62
2023/04/03 04:51:26;;;;;;;2.40;1.20;;;2.20;99.90;;;;;;4995155;28;20026;-63
2023/04/03 04:53:52;;;;;;;10.77;1.60;;;2.20;99.90;;;;;;4995171;28;20023;-62
2023/04/03 04:56:17;;;;;;;4.77;1.23;;;2.10;99.90;;;;;;4996023;28;20018;-62
2023/04/03 04:58:43;;;;;;;5.63;1.73;;;2.10;99.90;;;;;;4995052;28;20073;-62
2023/04/03 05:01:10;;;;;;;2.77;1.37;;;2.10;99.90;;;;;;4994918;28;20033;-62
2023/04/03 05:03:36;;;;;;;3.42;1.73;;;2.10;99.90;;;;;;4999120;28;20061;-62
2023/04/03 05:06:03;;;;;;;7.17;1.40;;;2.10;99.90;;;;;;5004752;28;20109;-62
2023/04/03 05:08:29;;;;;;;8.63;1.88;;;2.10;99.90;;;;;;4994652;28;20018;-62
2023/04/03 05:10:55;;;;;;;3.30;1.73;;;2.10;99.90;;;;;;4995257;28;20066;-62
2023/04/03 05:13:21;;;;;;;1.67;1.20;;;2.10;99.90;;;;;;4994437;28;20046;-62
2023/04/03 05:15:46;;;;;;;5.70;1.63;;;2.00;99.90;;;;;;4995201;28;20097;-62
2023/04/03 05:18:12;;;;;;;3.33;1.50;;;2.10;99.90;;;;;;4994784;28;20052;-62
2023/04/03 05:20:38;;;;;;;3.17;1.47;;;2.10;99.90;;;;;;4994438;28;20027;-62
2023/04/03 05:23:04;;;;;;;7.17;1.90;;;2.10;99.90;;;;;;4996955;28;20022;-62
2023/04/03 05:25:30;;;;;;;3.80;1.60;;;2.10;99.90;;;;;;4994540;28;20030;-72
2023/04/03 05:27:56;;;;;;;3.83;1.60;;;2.10;99.90;;;;;;4994813;28;20264;-62
2023/04/03 05:30:21;;;;;;;4.17;1.53;;;2.10;99.90;;;;;;4994423;28;20102;-62
2023/04/03 05:32:47;;;;;;;4.57;1.80;;;2.10;99.90;;;;;;4994638;28;20441;-62
2023/04/03 05:35:13;;;;;;;3.37;1.70;;;2.10;99.90;;;;;;5008051;28;20025;-62
2023/04/03 05:37:39;;;;;;;3.28;1.30;;;2.10;99.90;;;;;;5000612;28;20049;-62
2023/04/03 05:40:06;;;;;;;10.43;1.70;;;2.20;99.90;;;;;;4998282;28;20426;-62
2023/04/03 05:42:32;;;;;;;6.93;1.73;;;2.20;99.90;;;;;;4997895;28;20027;-62
2023/04/03 05:44:58;;;;;;;1.47;1.17;;;2.20;99.90;;;;;;4998303;28;20029;-62
2023/04/03 05:47:24;;;;;;;4.23;1.00;;;2.30;99.90;;;;;;5008703;28;20321;-62
2023/04/03 05:49:50;;;;;;;5.67;1.50;;;2.30;99.90;;;;;;5003779;28;20402;-62
2023/04/03 05:52:26;;;;;;;3.47;1.57;;;2.30;99.90;;;;;;5008962;28;20387;-73
2023/04/03 05:54:52;;;;;;;6.25;1.90;;;2.30;99.90;;;;;;5012184;28;20440;-62
2023/04/03 05:57:19;;;;;;;5.30;1.42;;;2.20;99.90;;;;;;5006057;28;20061;-62
2023/04/03 05:59:46;;;;;;;3.78;1.25;;;2.30;99.90;;;;;;5003214;28;20028;-74
2023/04/03 06:02:17;;;;;;;10.43;1.90;;;2.30;99.90;;;;;;5010308;28;20018;-62
2023/04/03 06:04:43;;;;;;;5.03;1.70;;;2.40;99.90;;;;;;4997781;28;20029;-62
2023/04/03 06:07:15;;;;;;;6.77;1.80;;;2.40;99.90;;;;;;4997130;28;20329;-73
2023/04/03 06:09:42;;;;;;;3.33;1.55;;;2.40;99.90;;;;;;4998834;28;20085;-62
2023/04/03 06:12:08;;;;;;;16.13;2.80;;;2.40;99.90;;;;;;5000940;28;20337;-62
2023/04/03 06:14:34;;;;;;;6.72;1.85;;;2.50;99.90;;;;;;5007009;28;20044;-71
2023/04/03 06:17:00;;;;;;;5.93;1.75;;;2.60;99.90;;;;;;4999485;28;20106;-62
2023/04/03 06:19:26;;;;;;;3.10;1.23;;;2.70;99.90;;;;;;5009373;28;20125;-62
2023/04/03 06:21:52;;;;;;;5.18;1.70;;;2.70;99.90;;;;;;4996820;28;20491;-62
2023/04/03 06:24:18;;;;;;;19.58;2.83;;;2.70;99.90;;;;;;5003771;28;20108;-63
2023/04/03 06:26:45;;;;;;;4.45;1.42;;;2.70;99.90;;;;;;5007323;28;20037;-62
2023/04/03 06:29:11;;;;;;;7.65;1.33;;;2.80;99.90;;;;;;4998157;28;20114;-62
2023/04/03 06:31:36;;;;;;;12.40;1.70;;;2.80;99.90;;;;;;4990300;28;20113;-62
2023/04/03 06:34:03;;;;;;;4.00;1.10;;;2.90;99.90;;;;;;5000176;28;20026;-62
2023/04/03 06:36:29;;;;;;;6.28;1.50;;;3.00;99.90;;;;;;4997168;28;20081;-62
2023/04/03 06:38:55;;;;;;;5.35;1.38;;;3.00;99.90;;;;;;4997457;28;20060;-62
2023/04/03 06:41:21;;;;;;;4.90;1.83;;;3.00;99.90;;;;;;5009595;28;20360;-62
2023/04/03 06:43:47;;;;;;;3.50;1.60;;;3.20;99.90;;;;;;4997052;28;20027;-62
2023/04/03 06:46:18;;;;;;;6.13;2.23;;;3.30;99.90;;;;;;4995657;28;20036;-62
2023/04/03 06:48:45;;;;;;;3.25;1.20;;;3.60;99.90;;;;;;4996625;28;20029;-73
2023/04/03 06:51:26;;;;;;;7.43;1.25;;;4.10;99.90;;;;;;4997386;28;20042;-62
2023/04/03 06:53:54;;;;;;;2.85;1.48;;;4.40;99.90;;;;;;4996750;28;20038;-62
2023/04/03 06:56:20;;;;;;;4.25;1.75;;;4.70;99.90;;;;;;4996205;28;20026;-62
2023/04/03 06:58:46;;;;;;;2.73;1.53;;;4.60;99.90;;;;;;4997177;28;20041;-62
2023/04/03 07:01:14;;;;;;;6.93;1.55;;;4.70;99.90;;;;;;4996581;28;20256;-62
2023/04/03 07:03:40;;;;;;;4.25;1.33;;;4.70;99.90;;;;;;4996179;28;20488;-61
2023/04/03 07:06:07;;;;;;;3.33;1.50;;;4.80;99.90;;;;;;4996571;28;20033;-62
2023/04/03 07:08:34;;;;;;;3.85;1.25;;;5.10;99.90;;;;;;5001660;28;20026;-61
2023/04/03 07:11:00;;;;;;;4.60;2.28;;;5.30;99.90;;;;;;4996415;28;20026;-61
2023/04/03 07:13:26;;;;;;;3.33;1.20;;;5.70;99.90;;;;;;4995731;28;20101;-65
2023/04/03 07:15:52;;;;;;;2.00;1.03;;;6.00;99.90;;;;;;4996573;28;20023;-61
2023/04/03 07:18:18;;;;;;;5.50;1.57;;;6.50;99.90;;;;;;4997719;28;20360;-61
2023/04/03 07:20:44;;;;;;;2.57;1.10;;;7.20;99.90;;;;;;4996909;28;20030;-61
2023/04/03 07:23:10;;;;;;;7.37;2.53;;;7.70;99.90;;;;;;4996237;28;20657;-62
2023/04/03 07:25:36;;;;;;;7.30;1.33;;;7.80;99.90;;;;;;4992509;28;20439;-62
2023/04/03 07:28:02;;;;;;;2.80;1.33;;;7.50;99.90;;;;;;4996137;28;20118;-62
2023/04/03 07:30:27;;;;;;;9.30;1.40;;;7.30;99.90;;;;;;4996148;28;20038;-62
2023/04/03 07:32:53;;;;;;;7.00;1.60;;;7.70;99.90;;;;;;4996404;28;20033;-62
2023/04/03 07:35:19;;;;;;;4.23;1.37;;;7.30;99.90;;;;;;4996228;28;20077;-62
2023/04/03 07:37:45;;;;;;;3.00;1.33;;;7.20;99.90;;;;;;4996476;28;20022;-62
2023/04/03 07:40:11;;;;;;;5.83;1.43;;;7.60;99.90;;;;;;4996061;28;20026;-62
2023/04/03 07:42:36;;;;;;;4.05;1.23;;;7.90;99.90;;;;;;4991870;28;20026;-62
2023/04/03 07:45:04;;;;;;;3.23;1.50;;;8.50;99.90;;;;;;4995846;28;20210;-62
2023/04/03 07:47:31;;;;;;;13.20;2.00;;;8.50;99.90;;;;;;5000146;28;20049;-74
2023/04/03 07:49:57;;;;;;;2.13;1.27;;;8.50;99.90;;;;;;4995367;28;20041;-62
2023/04/03 07:52:23;;;;;;;3.00;0.93;;;8.30;99.90;;;;;;4988065;28;20068;-61
2023/04/03 07:54:49;;;;;;;6.47;1.33;;;7.60;99.90;;;;;;4998390;28;20034;-62
2023/04/03 07:57:16;;;;;;;5.90;1.30;;;7.70;99.90;;;;;;4996450;28;20330;-62
2023/04/03 07:59:42;;;;;;;4.32;1.00;;;7.80;99.90;;;;;;4995374;28;20026;-62
2023/04/03 08:02:12;;;;;;;3.67;1.15;;;7.90;99.90;;;;;;4995533;28;20049;-62
2023/04/03 08:04:38;;;;;;;5.15;1.42;;;8.30;99.90;;;;;;4995817;28;20030;-62
2023/04/03 08:07:04;;;;;;;5.13;1.17;;;8.40;99.90;;;;;;4999657;28;20080;-62
2023/04/03 08:09:29;;;;;;;1.87;1.07;;;8.40;99.90;;;;;;5002633;28;20445;-62
2023/04/03 08:11:55;;;;;;;5.67;1.50;;;8.30;99.90;;;;;;4994333;28;20391;-62
2023/04/03 08:14:21;;;;;;;4.03;1.10;;;8.20;99.90;;;;;;4994801;28;20030;-62
2023/04/03 08:16:48;;;;;;;1.97;1.00;;;8.40;99.90;;;;;;4994446;28;20359;-62
2023/04/03 08:19:17;;;;;;;3.78;1.45;;;8.60;99.90;;;;;;5006204;28;20264;-62
2023/04/03 08:21:43;;;;;;;2.97;1.10;;;8.30;99.90;;;;;;5007563;28;20373;-74
2023/04/03 08:24:09;;;;;;;4.32;1.38;;;8.00;99.90;;;;;;5003346;28;20018;-62
2023/04/03 08:26:36;;;;;;;3.95;1.42;;;7.90;99.90;;;;;;5006024;28;20118;-62
2023/04/03 08:29:02;;;;;;;2.47;1.13;;;7.80;99.90;;;;;;4996765;28;20026;-62
2023/04/03 08:31:28;;;;;;;4.03;1.10;;;7.50;99.90;;;;;;4994504;28;20422;-62
2023/04/03 08:33:54;;;;;;;3.07;1.50;;;7.30;99.90;;;;;;4994292;28;20041;-62
2023/04/03 08:36:23;;;;;;;2.72;1.20;;;7.20;99.90;;;;;;5002027;28;20444;-62
2023/04/03 08:38:50;;;;;;;7.90;0.95;;;7.40;99.90;;;;;;5004512;28;20105;-63
2023/04/03 08:41:31;;;;;;;2.72;1.35;;;7.10;99.90;;;;;;4994464;28;20045;-62
2023/04/03 08:44:11;;;;;;;5.30;1.40;;;6.90;99.90;;;;;;5007984;28;20022;-61
2023/04/03 08:46:46;;;;;;;3.25;1.30;;;6.90;99.90;;;;;;5014570;28;20359;-62
2023/04/03 08:49:26;;;;;;;2.63;0.60;;;6.90;99.90;;;;;;4984506;28;20026;-62
2023/04/03 08:51:53;;;;;;;5.50;1.23;;;7.00;99.90;;;;;;4993981;28;20041;-62
2023/04/03 08:54:27;;;;;;;3.33;1.30;;;7.10;99.90;;;;;;4994382;28;20061;-62
2023/04/03 08:56:54;;;;;;;2.65;1.17;;;7.20;99.90;;;;;;4994163;28;20074;-62
2023/04/03 08:59:29;;;;;;;0.73;0.70;;;7.00;99.90;;;;;;5005210;28;20036;-62
2023/04/03 09:01:58;;;;;;;4.55;0.90;;;6.80;99.90;;;;;;4996235;28;20429;-61
2023/04/03 09:04:26;;;;;;;3.42;1.10;;;6.60;99.90;;;;;;5003725;28;21398;-63
2023/04/03 09:07:05;;;;;;;0.75;0.40;;;6.80;99.90;;;;;;4994199;28;20029;-61
2023/04/03 09:09:33;;;;;;;3.78;1.35;;;6.90;99.90;;;;;;5005156;28;20369;-61
2023/04/03 09:12:26;;;;;;;4.22;0.80;;;6.90;99.90;;;;;;5000304;28;20042;-62
2023/04/03 09:14:57;;;;;;;2.10;1.08;;;7.30;99.90;;;;;;4998006;28;20105;-62
2023/04/03 09:17:26;;;;;;;1.45;1.00;;;7.70;99.90;;;;;;4997343;28;20105;-62
2023/04/03 09:20:21;;;;;;;1.30;1.05;;;7.60;99.90;;;;;;4981298;28;20026;-62
2023/04/03 09:22:48;;;;;;;0.82;0.57;;;7.80;99.90;;;;;;4980800;28;20036;-61
2023/04/03 09:25:13;;;;;;;;;;;7.90;99.90;;;;;;4999058;28;20045;-62
2023/04/03 09:27:40;;;;;;;3.97;0.90;;;8.10;99.90;;;;;;5012090;28;19906;-62
2023/04/03 09:30:12;;;;;;;1.90;0.88;;;7.90;99.90;;;;;;4998375;28;20030;-72
2023/04/03 09:32:38;;;;;;;2.67;0.80;;;8.10;99.90;;;;;;4997946;28;20030;-62
2023/04/03 09:35:15;;;;;;;4.60;0.57;;;8.50;99.90;;;;;;4999024;28;20050;-62
2023/04/03 09:37:52;;;;;;;2.00;0.20;;;8.50;99.90;;;;;;4983151;28;20046;-62
2023/04/03 09:40:34;;;;;;;4.40;0.98;;;8.60;99.00;;;;;;4998618;28;20346;-62
2023/04/03 09:43:21;;;;;;;0.82;0.60;;;9.00;97.20;;;;;;4998301;28;20029;-62
2023/04/03 09:45:49;;;;;;;0.55;0.30;;;9.20;96.20;;;;;;4984291;28;20072;-61
2023/04/03 09:48:15;;;;;;;1.60;0.38;;;9.50;95.10;;;;;;4997589;28;20322;-62
2023/04/03 09:50:50;;;;;;;0.28;0.28;;;9.40;95.20;;;;;;5004161;28;20022;-61
2023/04/03 09:53:39;;;;;;;1.10;0.65;;;9.40;94.90;;;;;;5014358;28;20038;-62
2023/04/03 09:56:25;;;;;;;1.95;0.47;;;9.40;94.40;;;;;;4998128;28;20030;-62
2023/04/03 09:59:07;;;;;;;3.35;0.45;;;9.50;94.80;;;;;;4998063;28;20097;-62
2023/04/03 10:01:38;;;;;;;1.98;0.40;;;9.50;96.10;;;;;;4993689;28;20029;-63
2023/04/03 10:04:07;;;;;;;1.58;0.38;;;9.50;95.50;;;;;;4997769;28;20022;-76
2023/04/03 10:06:35;;;;;;;1.70;0.65;;;9.60;93.80;;;;;;5006351;28;20018;-73
2023/04/03 10:09:19;;;;;;;2.53;0.55;;;9.50;93.20;;;;;;4998029;28;20033;-62
2023/04/03 10:12:05;;;;;;;1.83;0.55;;;9.60;93.80;;;;;;4997286;28;20041;-62
2023/04/03 10:14:34;;;;;;;1.25;0.40;;;9.70;96.40;;;;;;4997457;28;20049;-62
2023/04/03 10:17:06;;;;;;;3.03;1.20;;;9.50;95.80;;;;;;5008336;28;20025;-62
2023/04/03 10:19:43;;;;;;;1.48;0.63;;;9.70;93.50;;;;;;4996956;28;20481;-62
2023/04/03 10:22:27;;;;;;;0.45;0.30;;;9.50;93.80;;;;;;5003466;28;20034;-61
2023/04/03 10:25:11;;;;;;;2.33;0.52;;;9.60;93.50;;;;;;5008174;28;20034;-62
2023/04/03 10:28:03;;;;;;;0.82;0.30;;;9.70;95.30;;;;;;4996588;28;20069;-62
2023/04/03 10:30:54;;;;;;;2.90;0.47;;;9.90;93.90;;;;;;4996377;28;20321;-61
2023/04/03 10:33:54;;;;;;;1.08;0.30;;;9.80;93.80;;;;;;4996685;28;20854;-62
2023/04/03 10:36:41;;;;;;;2.08;0.35;;;9.80;93.90;;;;;;4997917;28;20023;-62
2023/04/03 10:39:22;;;;;;;2.70;0.47;;;9.80;92.90;;;;;;4993418;28;20049;-61
2023/04/03 10:42:03;;;;;;;2.33;0.65;;;9.80;91.60;;;;;;4996498;28;20033;-62
2023/04/03 10:44:52;;;;;;;0.60;0.40;;;9.70;93.20;;;;;;5010010;28;20046;-61
2023/04/03 10:47:37;;;;;;;0.65;0.30;;;9.90;93.80;;;;;;4996883;28;20113;-62
2023/04/03 10:50:22;;;;;;;1.30;0.52;;;10.10;90.40;;;;;;4996583;28;20361;-62
2023/04/03 10:52:56;;;;;;;0.50;0.50;;;9.90;91.50;;;;;;4998371;28;20030;-62
2023/04/03 10:55:46;;;;;;;2.20;0.22;;;9.80;93.20;;;;;;4996758;28;20022;-62
2023/04/03 10:58:35;;;;;;;1.30;0.45;;;9.90;93.20;;;;;;4992886;28;20022;-62
2023/04/03 11:01:11;;;;;;;0.70;0.40;;;10.00;92.50;;;;;;4996589;28;20045;-62
2023/04/03 11:03:42;;;;;;;;;;;9.80;92.80;;;;;;5001365;28;20028;-62
2023/04/03 11:06:11;;;;;;;1.48;0.50;;;9.50;93.10;;;;;;5005327;28;20005;-62
2023/04/03 11:08:46;;;;;;;0.60;0.43;;;9.40;92.60;;;;;;5004624;28;20037;-62
2023/04/03 11:11:19;;;;;;;2.60;0.60;;;9.80;94.90;;;;;;4978964;28;20030;-62
2023/04/03 11:14:01;;;;;;;0.80;0.52;;;10.20;93.40;;;;;;5009833;28;20133;-77
2023/04/03 11:16:30;;;;;;;1.60;0.57;;;10.30;93.10;;;;;;4996306;28;20042;-62
2023/04/03 11:19:04;;;;;;;0.50;0.30;;;10.40;93.50;;;;;;5001539;28;20038;-61
2023/04/03 11:22:08;;;;;;;1.35;0.25;;;10.60;91.70;;;;;;4996219;28;20110;-62
2023/04/03 11:24:38;;;;;;;1.13;0.60;;;10.70;92.50;;;;;;4974536;28;20039;-62
2023/04/03 11:27:05;;;;;;;5.00;0.68;;;10.70;93.90;;;;;;4974376;28;20058;-62
2023/04/03 11:29:39;;;;;;;;;;;10.40;93.40;;;;;;4955713;29;20045;-62
2023/04/03 11:32:35;;;;;;;1.33;0.32;;;10.50;94.90;;;;;;4968832;28;19910;-62
2023/04/03 11:35:04;;;;;;;3.83;0.68;;;10.60;91.90;;;;;;4971879;28;20112;-62
2023/04/03 11:37:46;;;;;;;1.45;0.40;;;10.70;92.80;;;;;;4958203;28;20026;-62
2023/04/03 11:40:32;;;;;;;1.27;0.40;;;10.20;91.00;;;;;;4974529;28;20423;-62
2023/04/03 11:43:15;;;;;;;0.80;0.22;;;9.80;92.60;;;;;;4961222;28;20027;-62
2023/04/03 11:46:01;;;;;;;1.83;0.50;;;10.10;94.50;;;;;;4974416;28;20034;-62
2023/04/03 11:48:31;;;;;;;0.70;0.40;;;10.40;93.00;;;;;;4973927;28;20045;-61
2023/04/03 11:51:00;;;;;;;2.03;0.45;;;10.60;91.00;;;;;;4972697;28;20341;-62
2023/04/03 11:53:29;;;;;;;1.92;0.90;;;10.60;92.40;;;;;;4974069;28;20030;-69
2023/04/03 11:55:57;;;;;;;3.08;0.65;;;10.60;92.70;;;;;;4974148;28;20039;-62
2023/04/03 11:58:26;;;;;;;3.60;0.40;;;10.60;91.10;;;;;;4973863;28;20015;-62
2023/04/03 12:00:54;;;;;;;2.30;0.45;;;10.30;93.30;;;;;;4993226;28;20036;-62
2023/04/03 12:03:29;;;;;;;3.00;0.40;;;10.50;92.30;;;;;;4999134;28;20041;-62
2023/04/03 12:06:06;;;;;;;0.40;0.40;;;10.50;93.10;;;;;;4995518;28;20105;-62
2023/04/03 12:08:32;;;;;;;0.63;0.38;;;10.70;92.10;;;;;;4995422;28;20030;-63
2023/04/03 12:11:10;;;;;;;0.70;0.40;;;10.90;92.60;;;;;;5005238;28;20088;-62
2023/04/03 12:13:37;;;;;;;1.25;0.45;;;11.00;93.30;;;;;;4998356;28;20054;-70
2023/04/03 12:16:05;;;;;;;0.50;0.50;;;10.90;92.80;;;;;;4995398;28;20317;-62
2023/04/03 12:18:42;;;;;;;0.70;0.32;;;11.30;91.30;;;;;;4995168;28;20391;-61
2023/04/03 12:21:13;;;;;;;0.68;0.50;;;11.30;90.60;;;;;;4995258;28;20027;-62
2023/04/03 12:24:03;;;;;;;1.73;0.77;;;11.20;91.20;;;;;;4995120;28;20392;-62
2023/04/03 12:27:01;;;;;;;0.40;0.40;;;10.90;92.60;;;;;;4999878;28;20029;-62
2023/04/03 12:29:33;;;;;;;0.10;0.10;;;10.40;92.10;;;;;;4995450;28;20018;-62
2023/04/03 12:32:18;;;;;;;0.73;0.40;;;10.20;91.90;;;;;;4995254;28;20370;-62
2023/04/03 12:34:43;;;;;;;1.23;0.50;;;10.20;92.10;;;;;;4995220;28;20417;-62
2023/04/03 12:37:20;;;;;;;2.43;0.57;;;10.60;92.10;;;;;;4998793;28;20026;-62
2023/04/03 12:40:07;;;;;;;0.98;0.45;;;10.90;93.00;;;;;;4995350;28;20032;-63
2023/04/03 12:43:06;;;;;;;2.10;0.57;;;11.00;90.90;;;;;;4994951;28;20023;-62
2023/04/03 12:45:59;;;;;;;1.95;0.50;;;10.90;92.10;;;;;;4998606;28;20425;-62
2023/04/03 12:48:27;;;;;;;2.88;0.57;;;11.20;92.00;;;;;;4997197;28;20086;-62
2023/04/03 12:50:54;;;;;;;3.47;0.75;;;10.90;90.20;;;;;;4999057;28;20037;-62
2023/04/03 12:53:24;;;;;;;4.57;0.50;;;10.90;93.30;;;;;;5005885;28;20354;-62
2023/04/03 12:55:55;;;;;;;0.98;0.43;;;10.40;91.90;;;;;;4999223;28;20418;-61
2023/04/03 12:58:21;;;;;;;0.65;0.43;;;10.30;92.50;;;;;;4998566;28;20081;-61
2023/04/03 13:00:58;;;;;;;1.37;0.70;;;10.60;91.00;;;;;;4998889;28;20402;-62
2023/04/03 13:03:26;;;;;;;2.47;0.93;;;10.80;92.80;;;;;;4998977;28;20291;-62
2023/04/03 13:05:56;;;;;;;1.65;0.40;;;10.80;92.60;;;;;;5007632;28;20053;-74
2023/04/03 13:08:22;;;;;;;1.35;0.47;;;10.80;93.40;;;;;;5018578;28;20034;-62